Time,TemperatureF,DewpointF,PressureIn,WindDirection,WindDirectionDegrees,WindSpeedMPH,WindSpeedGustMPH,Humidity,HourlyPrecipIn,Conditions,Clouds,dailyrainin,SoftwareType,DateUTC
2013-01-14 00:10:00,74.1,58.2,30.06,SSE,157,4.0,4.0,49,0.00,,,-99.99,Homeseer,2013-01-14 05:10:00,
2013-01-14 00:20:00,73.9,58.9,30.06,SSE,157,3.1,4.3,51,0.00,,,-99.99,Homeseer,2013-01-14 05:20:00,
2013-01-14 00:30:00,73.9,58.0,30.06,ESE,112,5.8,5.8,49,0.00,,,-99.99,Homeseer,2013-01-14 05:30:00,
2013-01-14 00:40:00,73.9,58.4,30.06,South,180,4.7,5.4,50,0.00,,,-99.99,Homeseer,2013-01-14 05:40:00,
2013-01-14 00:50:00,73.8,59.2,30.06,SE,135,4.7,4.7,52,0.00,,,-99.99,Homeseer,2013-01-14 05:50:00,
2013-01-14 01:00:00,73.8,59.6,30.06,South,180,2.2,2.2,53,0.00,,,-99.99,Homeseer,2013-01-14 06:00:00,
2013-01-14 01:10:00,73.8,60.4,30.06,North,0,4.0,4.0,55,0.00,,,-99.99,Homeseer,2013-01-14 06:10:00,
2013-01-14 01:20:00,73.8,60.8,30.06,SSE,157,5.4,5.4,56,0.00,,,-99.99,Homeseer,2013-01-14 06:20:00,
2013-01-14 01:30:00,73.6,60.2,30.06,SE,135,4.5,4.9,55,0.00,,,-99.99,Homeseer,2013-01-14 06:30:00,
2013-01-14 01:40:00,73.6,60.2,30.06,North,0,6.5,7.8,55,0.00,,,-99.99,Homeseer,2013-01-14 06:40:00,
2013-01-14 01:50:00,73.6,60.2,30.06,SSE,157,4.7,5.6,55,0.00,,,-99.99,Homeseer,2013-01-14 06:50:00,
2013-01-14 02:00:00,73.4,60.0,30.06,SSE,157,3.8,3.8,55,0.00,,,-99.99,Homeseer,2013-01-14 07:00:00,
2013-01-14 02:10:00,73.4,59.6,30.06,North,0,2.2,2.2,54,0.00,,,-99.99,Homeseer,2013-01-14 07:10:00,
2013-01-14 02:20:00,73.2,59.8,30.06,South,180,2.5,3.4,55,0.00,,,-99.99,Homeseer,2013-01-14 07:20:00,
2013-01-14 02:30:00,73.2,59.4,30.06,North,0,4.7,5.4,54,0.00,,,-99.99,Homeseer,2013-01-14 07:30:00,
2013-01-14 02:40:00,73.4,59.6,30.06,SSE,157,2.7,2.7,54,0.00,,,-99.99,Homeseer,2013-01-14 07:40:00,
2013-01-14 02:50:00,73.4,58.8,30.06,North,0,3.1,3.1,52,0.00,,,-99.99,Homeseer,2013-01-14 07:50:00,
2013-01-14 03:00:00,73.2,58.2,30.06,South,180,3.4,3.4,51,0.00,,,-99.99,Homeseer,2013-01-14 08:00:00,
2013-01-14 03:10:00,73.4,58.8,30.06,SSE,157,5.6,5.6,52,0.00,,,-99.99,Homeseer,2013-01-14 08:10:00,
2013-01-14 03:20:00,73.4,59.2,30.06,SE,135,4.7,4.7,53,0.00,,,-99.99,Homeseer,2013-01-14 08:20:00,
2013-01-14 03:30:00,73.2,59.0,30.06,South,180,6.0,10.5,53,0.00,,,-99.99,Homeseer,2013-01-14 08:30:00,
2013-01-14 03:40:00,73.2,59.0,30.06,SE,135,4.3,4.3,53,0.00,,,-99.99,Homeseer,2013-01-14 08:40:00,
2013-01-14 03:50:00,73.2,59.0,30.06,SE,135,3.8,3.8,53,0.00,,,-99.99,Homeseer,2013-01-14 08:50:00,
2013-01-14 04:00:00,73.2,59.4,30.06,South,180,2.5,2.5,54,0.00,,,-99.99,Homeseer,2013-01-14 09:00:00,
2013-01-14 04:10:00,73.2,59.4,30.06,SSE,157,4.0,4.0,54,0.00,,,-99.99,Homeseer,2013-01-14 09:10:00,
2013-01-14 04:20:00,73.2,59.8,30.06,ESE,112,4.0,7.4,55,0.00,,,-99.99,Homeseer,2013-01-14 09:20:00,
2013-01-14 04:30:00,73.2,59.8,30.06,SSE,157,4.5,7.6,55,0.00,,,-99.99,Homeseer,2013-01-14 09:30:00,
2013-01-14 04:40:00,73.4,59.2,30.06,SSE,157,3.1,3.8,53,0.00,,,-99.99,Homeseer,2013-01-14 09:40:00,
2013-01-14 04:50:00,73.4,59.2,30.06,SSE,157,4.7,4.7,53,0.00,,,-99.99,Homeseer,2013-01-14 09:50:00,
2013-01-14 05:00:00,73.2,61.3,30.06,North,0,4.0,4.0,59,0.00,,,-99.99,Homeseer,2013-01-14 10:00:00,
2013-01-14 05:10:00,73.0,60.8,30.06,SE,135,4.0,4.0,58,0.00,,,-99.99,Homeseer,2013-01-14 10:10:00,
2013-01-14 05:20:00,73.0,59.6,30.06,ESE,112,4.9,4.9,55,0.00,,,-99.99,Homeseer,2013-01-14 10:20:00,
2013-01-14 05:30:00,72.9,58.8,30.06,SSE,157,3.8,3.8,53,0.00,,,-99.99,Homeseer,2013-01-14 10:30:00,
2013-01-14 05:40:00,72.9,58.8,30.06,SSE,157,5.6,5.6,53,0.00,,,-99.99,Homeseer,2013-01-14 10:40:00,
2013-01-14 05:50:00,72.7,59.0,30.06,SSE,157,4.7,6.7,54,0.00,,,-99.99,Homeseer,2013-01-14 10:50:00,
2013-01-14 06:00:00,72.7,58.6,30.06,South,180,3.1,3.4,53,0.00,,,-99.99,Homeseer,2013-01-14 11:00:00,
2013-01-14 06:10:00,72.5,59.2,30.06,North,0,2.5,2.5,55,0.00,,,-99.99,Homeseer,2013-01-14 11:10:00,
2013-01-14 06:20:00,72.5,59.6,30.06,North,0,3.1,3.1,56,0.00,,,-99.99,Homeseer,2013-01-14 11:20:00,
2013-01-14 06:30:00,72.7,59.8,30.06,SSE,157,2.2,2.5,56,0.00,,,-99.99,Homeseer,2013-01-14 11:30:00,
2013-01-14 06:40:00,72.7,59.8,30.06,South,180,2.9,2.9,56,0.00,,,-99.99,Homeseer,2013-01-14 11:40:00,
2013-01-14 06:50:00,72.5,59.6,30.09,SSE,157,3.4,3.4,56,0.00,,,-99.99,Homeseer,2013-01-14 11:50:00,
2013-01-14 07:00:00,72.5,59.6,30.09,SSE,157,2.2,2.2,56,0.00,,,-99.99,Homeseer,2013-01-14 12:00:00,
2013-01-14 07:10:00,72.3,59.4,30.09,SE,135,2.0,2.5,56,0.00,,,-99.99,Homeseer,2013-01-14 12:10:00,
2013-01-14 07:20:00,72.5,59.6,30.09,SE,135,2.2,2.5,56,0.00,,,-99.99,Homeseer,2013-01-14 12:20:00,
2013-01-14 07:30:00,72.5,59.6,30.09,North,0,3.1,3.8,56,0.00,,,-99.99,Homeseer,2013-01-14 12:30:00,
2013-01-14 07:40:00,72.9,59.9,30.09,South,180,2.7,2.7,56,0.00,,,-99.99,Homeseer,2013-01-14 12:40:00,
2013-01-14 07:50:00,73.0,60.8,30.09,North,0,2.5,4.9,58,0.00,,,-99.99,Homeseer,2013-01-14 12:50:00,
2013-01-14 08:00:00,73.2,61.0,30.09,SSE,157,2.9,3.1,58,0.00,,,-99.99,Homeseer,2013-01-14 13:00:00,
2013-01-14 08:10:00,73.4,60.4,30.09,East,90,6.0,6.0,56,0.00,,,-99.99,Homeseer,2013-01-14 13:10:00,
2013-01-14 08:20:00,73.8,60.4,30.09,North,0,5.4,7.4,55,0.00,,,-99.99,Homeseer,2013-01-14 13:20:00,
2013-01-14 08:30:00,73.9,60.1,30.09,SSE,157,3.6,3.6,54,0.00,,,-99.99,Homeseer,2013-01-14 13:30:00,
2013-01-14 08:40:00,73.9,60.5,30.09,SSE,157,4.5,4.5,55,0.00,,,-99.99,Homeseer,2013-01-14 13:40:00,
2013-01-14 08:50:00,74.5,61.0,30.09,East,90,7.6,8.5,55,0.00,,,-99.99,Homeseer,2013-01-14 13:50:00,
2013-01-14 09:00:00,74.7,61.2,30.09,SSE,157,5.6,6.0,55,0.00,,,-99.99,Homeseer,2013-01-14 14:00:00,
2013-01-14 09:10:00,75.0,59.0,30.09,ESE,112,5.4,5.4,49,0.00,,,-99.99,Homeseer,2013-01-14 14:10:00,
2013-01-14 09:20:00,75.2,59.2,30.09,SW,225,4.0,4.3,49,0.00,,,-99.99,Homeseer,2013-01-14 14:20:00,
2013-01-14 09:30:00,75.4,61.0,30.09,North,0,4.3,5.8,53,0.00,,,-99.99,Homeseer,2013-01-14 14:30:00,
2013-01-14 09:40:00,75.7,62.5,30.09,SE,135,7.4,12.3,56,0.00,,,-99.99,Homeseer,2013-01-14 14:40:00,
2013-01-14 09:50:00,76.1,62.9,30.12,South,180,3.1,4.9,56,0.00,,,-99.99,Homeseer,2013-01-14 14:50:00,
2013-01-14 10:00:00,76.3,61.4,30.12,SE,135,6.9,6.9,52,0.00,,,-99.99,Homeseer,2013-01-14 15:00:00,
2013-01-14 10:10:00,76.6,60.9,30.12,South,180,5.6,8.5,50,0.00,,,-99.99,Homeseer,2013-01-14 15:10:00,
2013-01-14 10:20:00,76.8,59.7,30.12,SE,135,3.8,3.8,47,0.00,,,-99.99,Homeseer,2013-01-14 15:20:00,
2013-01-14 10:30:00,76.8,58.3,30.09,SE,135,4.3,7.4,44,0.00,,,-99.99,Homeseer,2013-01-14 15:30:00,
2013-01-14 10:40:00,77.5,59.4,30.09,North,0,5.6,6.5,45,0.00,,,-99.99,Homeseer,2013-01-14 15:40:00,
2013-01-14 10:50:00,77.0,59.0,30.09,SE,135,4.7,4.7,45,0.00,,,-99.99,Homeseer,2013-01-14 15:50:00,
2013-01-14 11:00:00,77.5,59.9,30.09,North,0,4.5,4.5,46,0.00,,,-99.99,Homeseer,2013-01-14 16:00:00,
2013-01-14 11:10:00,77.9,59.8,30.09,SSE,157,5.4,5.4,45,0.00,,,-99.99,Homeseer,2013-01-14 16:10:00,
2013-01-14 11:20:00,78.3,60.1,30.09,North,0,5.6,5.6,45,0.00,,,-99.99,Homeseer,2013-01-14 16:20:00,
2013-01-14 11:30:00,78.6,59.9,30.09,SSE,157,4.9,8.5,44,0.00,,,-99.99,Homeseer,2013-01-14 16:30:00,
2013-01-14 11:40:00,78.4,59.2,30.09,SSE,157,4.3,5.8,43,0.00,,,-99.99,Homeseer,2013-01-14 16:40:00,
2013-01-14 11:50:00,79.0,60.8,30.09,SSE,157,3.1,4.3,45,0.00,,,-99.99,Homeseer,2013-01-14 16:50:00,
2013-01-14 12:00:00,79.2,60.9,30.09,SSE,157,3.8,3.8,45,0.00,,,-99.99,Homeseer,2013-01-14 17:00:00,
2013-01-14 12:10:00,79.5,60.7,30.09,North,0,4.5,4.5,44,0.00,,,-99.99,Homeseer,2013-01-14 17:10:00,
2013-01-14 12:20:00,79.9,61.1,30.09,North,0,3.8,3.8,44,0.00,,,-99.99,Homeseer,2013-01-14 17:20:00,
2013-01-14 12:30:00,79.9,61.1,30.09,SSE,157,3.1,4.3,44,0.00,,,-99.99,Homeseer,2013-01-14 17:30:00,
2013-01-14 12:40:00,79.7,59.9,30.09,SSE,157,2.9,2.9,42,0.00,,,-99.99,Homeseer,2013-01-14 17:40:00,
2013-01-14 12:50:00,79.5,60.2,30.06,SSE,157,2.2,2.7,43,0.00,,,-99.99,Homeseer,2013-01-14 17:50:00,
2013-01-14 13:00:00,79.7,60.4,30.09,South,180,3.6,4.3,43,0.00,,,-99.99,Homeseer,2013-01-14 18:00:00,
2013-01-14 13:10:00,79.7,60.4,30.09,SE,135,4.7,6.3,43,0.00,,,-99.99,Homeseer,2013-01-14 18:10:00,
2013-01-14 13:20:00,79.7,60.4,30.06,SSE,157,3.1,3.1,43,0.00,,,-99.99,Homeseer,2013-01-14 18:20:00,
2013-01-14 13:30:00,79.7,60.4,30.06,SSE,157,4.5,4.7,43,0.00,,,-99.99,Homeseer,2013-01-14 18:30:00,
2013-01-14 13:40:00,79.3,60.5,30.06,South,180,4.9,5.4,44,0.00,,,-99.99,Homeseer,2013-01-14 18:40:00,
2013-01-14 13:50:00,79.3,60.0,30.06,SE,135,5.4,5.4,43,0.00,,,-99.99,Homeseer,2013-01-14 18:50:00,
2013-01-14 14:00:00,79.9,61.6,30.06,SSE,157,2.9,2.9,45,0.00,,,-99.99,Homeseer,2013-01-14 19:00:00,
2013-01-14 14:10:00,80.1,60.2,30.06,SE,135,2.9,5.8,42,0.00,,,-99.99,Homeseer,2013-01-14 19:10:00,
2013-01-14 14:20:00,80.2,60.8,30.06,South,180,2.5,2.9,43,0.00,,,-99.99,Homeseer,2013-01-14 19:20:00,
2013-01-14 14:30:00,80.6,61.2,30.06,SSE,157,3.4,3.4,43,0.00,,,-99.99,Homeseer,2013-01-14 19:30:00,
2013-01-14 14:40:00,80.4,61.0,30.06,ESE,112,2.9,3.8,43,0.00,,,-99.99,Homeseer,2013-01-14 19:40:00,
2013-01-14 14:50:00,80.2,61.3,30.06,South,180,3.1,3.8,44,0.00,,,-99.99,Homeseer,2013-01-14 19:50:00,
2013-01-14 15:00:00,79.3,60.5,30.06,North,0,4.7,4.7,44,0.00,,,-99.99,Homeseer,2013-01-14 20:00:00,
2013-01-14 15:10:00,79.2,60.0,30.06,North,0,3.8,6.0,43,0.00,,,-99.99,Homeseer,2013-01-14 20:10:00,
2013-01-14 15:20:00,79.2,60.9,30.06,North,0,3.8,6.3,45,0.00,,,-99.99,Homeseer,2013-01-14 20:20:00,
2013-01-14 15:30:00,79.2,60.9,30.06,SE,135,2.9,2.9,45,0.00,,,-99.99,Homeseer,2013-01-14 20:30:00,
2013-01-14 15:40:00,78.1,60.0,30.06,ESE,112,4.9,4.9,45,0.00,,,-99.99,Homeseer,2013-01-14 20:40:00,
2013-01-14 15:50:00,77.9,60.2,30.06,SE,135,4.3,4.3,46,0.00,,,-99.99,Homeseer,2013-01-14 20:50:00,
2013-01-14 16:00:00,78.1,60.4,30.06,South,180,2.0,2.9,46,0.00,,,-99.99,Homeseer,2013-01-14 21:00:00,
2013-01-14 16:10:00,78.6,60.9,30.06,North,0,3.6,3.6,46,0.00,,,-99.99,Homeseer,2013-01-14 21:10:00,
2013-01-14 16:20:00,77.5,60.4,30.09,South,180,5.4,6.3,47,0.00,,,-99.99,Homeseer,2013-01-14 21:20:00,
2013-01-14 16:30:00,77.4,61.2,30.09,ESE,112,2.7,3.1,49,0.00,,,-99.99,Homeseer,2013-01-14 21:30:00,
2013-01-14 16:40:00,77.0,60.8,30.09,South,180,2.7,2.9,49,0.00,,,-99.99,Homeseer,2013-01-14 21:40:00,
2013-01-14 16:50:00,76.8,61.5,30.09,South,180,3.8,3.8,51,0.00,,,-99.99,Homeseer,2013-01-14 21:50:00,
2013-01-14 17:00:00,76.8,61.1,30.09,SE,135,2.7,2.7,50,0.00,,,-99.99,Homeseer,2013-01-14 22:00:00,
2013-01-14 17:10:00,76.5,61.2,30.09,East,90,2.5,2.5,51,0.00,,,-99.99,Homeseer,2013-01-14 22:10:00,
2013-01-14 17:20:00,76.1,60.8,30.09,SSE,157,2.5,2.9,51,0.00,,,-99.99,Homeseer,2013-01-14 22:20:00,
2013-01-14 17:30:00,75.9,60.7,30.09,SSE,157,3.6,3.8,51,0.00,,,-99.99,Homeseer,2013-01-14 22:30:00,
2013-01-14 17:40:00,75.7,60.5,30.09,SSE,157,4.3,5.4,51,0.00,,,-99.99,Homeseer,2013-01-14 22:40:00,
2013-01-14 17:50:00,75.6,60.8,30.09,SSE,157,2.2,2.5,52,0.00,,,-99.99,Homeseer,2013-01-14 22:50:00,
2013-01-14 18:00:00,75.4,60.6,30.09,SSE,157,3.6,3.6,52,0.00,,,-99.99,Homeseer,2013-01-14 23:00:00,
2013-01-14 18:10:00,75.2,60.9,30.09,SSE,157,4.0,4.0,53,0.00,,,-99.99,Homeseer,2013-01-14 23:10:00,
2013-01-14 18:20:00,75.0,60.7,30.09,SSE,157,4.3,4.3,53,0.00,,,-99.99,Homeseer,2013-01-14 23:20:00,
2013-01-14 18:30:00,75.0,61.1,30.09,South,180,3.1,4.7,54,0.00,,,-99.99,Homeseer,2013-01-14 23:30:00,
2013-01-14 18:40:00,74.8,61.7,30.09,SSE,157,3.4,3.6,56,0.00,,,-99.99,Homeseer,2013-01-14 23:40:00,
2013-01-14 18:50:00,74.8,61.7,30.09,North,0,4.9,8.7,56,0.00,,,-99.99,Homeseer,2013-01-14 23:50:00,
2013-01-14 19:00:00,74.7,62.4,30.09,SSE,157,4.9,4.9,58,0.00,,,-99.99,Homeseer,2013-01-15 00:00:00,
2013-01-14 19:10:00,74.7,62.4,30.09,SSE,157,3.8,4.9,58,0.00,,,-99.99,Homeseer,2013-01-15 00:10:00,
2013-01-14 19:20:00,74.7,62.7,30.09,SSE,157,3.8,4.9,59,0.00,,,-99.99,Homeseer,2013-01-15 00:20:00,
2013-01-14 19:30:00,74.7,63.1,30.09,ESE,112,4.9,7.8,60,0.00,,,-99.99,Homeseer,2013-01-15 00:30:00,
2013-01-14 19:40:00,74.5,62.9,30.09,SSE,157,4.5,4.5,60,0.00,,,-99.99,Homeseer,2013-01-15 00:40:00,
2013-01-14 19:50:00,74.7,62.7,30.09,ESE,112,3.4,4.3,59,0.00,,,-99.99,Homeseer,2013-01-15 00:50:00,
2013-01-14 20:00:00,74.5,62.2,30.09,South,180,4.5,4.5,58,0.00,,,-99.99,Homeseer,2013-01-15 01:00:00,
2013-01-14 20:10:00,74.5,62.9,30.09,SE,135,5.4,5.6,60,0.00,,,-99.99,Homeseer,2013-01-15 01:10:00,
2013-01-14 20:20:00,74.5,62.9,30.09,SSE,157,4.9,4.9,60,0.00,,,-99.99,Homeseer,2013-01-15 01:20:00,
2013-01-14 20:30:00,74.5,63.3,30.09,SSE,157,2.2,2.2,61,0.00,,,-99.99,Homeseer,2013-01-15 01:30:00,
2013-01-14 20:40:00,74.7,62.4,30.09,SSE,157,3.1,3.8,58,0.00,,,-99.99,Homeseer,2013-01-15 01:40:00,
2013-01-14 20:50:00,74.7,62.7,30.09,North,0,2.5,2.5,59,0.00,,,-99.99,Homeseer,2013-01-15 01:50:00,
2013-01-14 21:00:00,74.7,62.7,30.09,SSE,157,4.9,4.9,59,0.00,,,-99.99,Homeseer,2013-01-15 02:00:00,
2013-01-14 21:10:00,74.7,63.1,30.09,SE,135,4.5,4.5,60,0.00,,,-99.99,Homeseer,2013-01-15 02:10:00,
2013-01-14 21:20:00,74.7,63.5,30.09,SE,135,4.0,6.3,61,0.00,,,-99.99,Homeseer,2013-01-15 02:20:00,
2013-01-14 21:30:00,74.7,63.5,30.09,ESE,112,3.6,3.6,61,0.00,,,-99.99,Homeseer,2013-01-15 02:30:00,
2013-01-14 21:40:00,74.7,63.8,30.09,South,180,3.1,3.1,62,0.00,,,-99.99,Homeseer,2013-01-15 02:40:00,
2013-01-14 21:50:00,74.7,63.8,30.09,North,0,5.6,10.7,62,0.00,,,-99.99,Homeseer,2013-01-15 02:50:00,
2013-01-14 22:00:00,74.7,63.5,30.09,ESE,112,4.7,6.3,61,0.00,,,-99.99,Homeseer,2013-01-15 03:00:00,
2013-01-14 22:10:00,74.7,63.8,30.09,SE,135,4.0,4.0,62,0.00,,,-99.99,Homeseer,2013-01-15 03:10:00,
2013-01-14 22:20:00,74.7,64.2,30.09,ESE,112,4.5,4.5,63,0.00,,,-99.99,Homeseer,2013-01-15 03:20:00,
2013-01-14 22:30:00,74.7,64.5,30.09,East,90,4.9,4.9,64,0.00,,,-99.99,Homeseer,2013-01-15 03:30:00,
2013-01-14 22:40:00,74.8,65.0,30.09,East,90,4.9,4.9,65,0.00,,,-99.99,Homeseer,2013-01-15 03:40:00,
2013-01-14 22:50:00,74.5,62.9,30.09,SE,135,3.6,6.0,60,0.00,,,-99.99,Homeseer,2013-01-15 03:50:00,
2013-01-14 23:00:00,74.7,62.4,30.09,SSE,157,6.0,6.0,58,0.00,,,-99.99,Homeseer,2013-01-15 04:00:00,
2013-01-14 23:10:00,74.7,62.4,30.09,North,0,3.4,3.4,58,0.00,,,-99.99,Homeseer,2013-01-15 04:10:00,
2013-01-14 23:20:00,74.7,63.1,30.09,SE,135,2.7,4.3,60,0.00,,,-99.99,Homeseer,2013-01-15 04:20:00,
2013-01-14 23:30:00,74.7,63.1,30.09,ESE,112,4.0,4.9,60,0.00,,,-99.99,Homeseer,2013-01-15 04:30:00,
2013-01-14 23:40:00,74.7,63.8,30.09,SE,135,3.4,5.8,62,0.00,,,-99.99,Homeseer,2013-01-15 04:40:00,
2013-01-14 23:50:00,74.8,65.3,30.09,SE,135,5.6,5.6,66,0.00,,,-99.99,Homeseer,2013-01-15 04:50:00,